Time;durP1;ratioP1;P1;durP2;ratioP2;P2;SDS_P1;SDS_P2;PMS_P1;PMS_P2;Temp;Humidity;BMP_temperature;BMP_pressure;BME280_temperature;BME280_humidity;BME280_pressure;Samples;Min_cycle;Max_cycle;Signal;HPM_P1;HPM_P2
2023/07/22 00:01:00;;;;;;;4.30;3.08;;;17.20;71.90;;;;;;5032195;28;20213;-68
2023/07/22 00:03:25;;;;;;;4.90;3.78;;;17.10;72.00;;;;;;5031610;28;20053;-67
2023/07/22 00:06:11;;;;;;;4.82;3.75;;;17.10;72.00;;;;;;5031532;28;20022;-68
2023/07/22 00:08:38;;;;;;;4.35;3.35;;;17.10;72.10;;;;;;5032212;28;20540;-68
2023/07/22 00:11:06;;;;;;;5.20;4.05;;;17.10;72.10;;;;;;5031898;28;20500;-68
2023/07/22 00:13:32;;;;;;;4.97;3.90;;;17.10;72.10;;;;;;5031500;28;20021;-68
2023/07/22 00:15:59;;;;;;;5.28;3.97;;;17.10;72.20;;;;;;5031479;28;20093;-68
2023/07/22 00:18:27;;;;;;;5.88;4.13;;;17.10;72.20;;;;;;5031245;28;20032;-68
2023/07/22 00:20:53;;;;;;;4.85;3.75;;;17.00;72.30;;;;;;5031208;28;20022;-68
2023/07/22 00:23:19;;;;;;;6.00;4.40;;;17.00;72.40;;;;;;5031207;28;20424;-68
2023/07/22 00:25:46;;;;;;;5.72;4.20;;;17.00;72.50;;;;;;5029929;28;20656;-68
2023/07/22 00:28:12;;;;;;;6.05;4.15;;;17.00;72.70;;;;;;5031173;28;20029;-68
2023/07/22 00:30:37;;;;;;;5.47;4.05;;;17.00;72.70;;;;;;5030617;28;20320;-68
2023/07/22 00:33:03;;;;;;;5.93;4.30;;;17.00;72.70;;;;;;5031049;28;20033;-68
2023/07/22 00:35:28;;;;;;;6.70;4.57;;;17.00;72.80;;;;;;5031179;28;20060;-68
2023/07/22 00:37:54;;;;;;;5.93;4.70;;;17.00;72.70;;;;;;5030712;28;20025;-68
2023/07/22 00:40:20;;;;;;;7.47;4.70;;;17.00;72.80;;;;;;5030592;28;20025;-69
2023/07/22 00:42:45;;;;;;;7.80;4.80;;;17.00;72.90;;;;;;5030828;28;20352;-68
2023/07/22 00:45:11;;;;;;;6.22;4.70;;;16.90;73.00;;;;;;5030960;28;20032;-68
2023/07/22 00:47:38;;;;;;;7.22;5.57;;;16.90;73.10;;;;;;5030746;28;20380;-69
2023/07/22 00:50:06;;;;;;;6.45;4.72;;;16.90;73.20;;;;;;5030559;28;20021;-68
2023/07/22 00:52:32;;;;;;;6.47;4.68;;;16.90;73.30;;;;;;5030523;28;20526;-69
2023/07/22 00:54:58;;;;;;;6.55;5.03;;;16.80;73.40;;;;;;5030464;28;20039;-69
2023/07/22 00:57:24;;;;;;;7.55;4.90;;;16.80;73.50;;;;;;5030370;28;20109;-69
2023/07/22 00:59:49;;;;;;;7.07;5.15;;;16.90;73.40;;;;;;5029371;28;20104;-69
2023/07/22 01:02:15;;;;;;;8.52;6.18;;;16.90;73.40;;;;;;5030340;28;20094;-69
2023/07/22 01:04:41;;;;;;;8.68;5.88;;;16.80;73.60;;;;;;5030890;28;20026;-69
2023/07/22 01:07:09;;;;;;;9.93;6.53;;;16.80;73.60;;;;;;5030257;28;20032;-69
2023/07/22 01:09:40;;;;;;;8.95;6.50;;;16.80;73.80;;;;;;5030282;28;20030;-69
2023/07/22 01:12:06;;;;;;;7.60;5.60;;;16.80;73.90;;;;;;5030759;28;20025;-69
2023/07/22 01:14:37;;;;;;;9.85;6.70;;;16.80;73.90;;;;;;5030202;28;20119;-68
2023/07/22 01:17:05;;;;;;;10.30;6.50;;;16.80;74.10;;;;;;5030118;28;20373;-69
2023/07/22 01:19:31;;;;;;;9.38;6.72;;;16.80;74.10;;;;;;5030420;28;20456;-69
2023/07/22 01:22:10;;;;;;;8.73;6.03;;;16.80;74.10;;;;;;5030126;28;20061;-69
2023/07/22 01:24:37;;;;;;;9.25;6.38;;;16.90;74.10;;;;;;5030055;28;20181;-69
2023/07/22 01:27:07;;;;;;;9.95;7.15;;;17.00;73.90;;;;;;5030143;28;20029;-69
2023/07/22 01:29:33;;;;;;;11.35;7.95;;;17.00;74.00;;;;;;5030010;28;20036;-69
2023/07/22 01:31:59;;;;;;;10.13;7.68;;;16.90;74.10;;;;;;5030068;28;20400;-69
2023/07/22 01:34:25;;;;;;;9.85;7.03;;;16.90;74.20;;;;;;5029887;28;20079;-68
2023/07/22 01:36:51;;;;;;;9.82;6.82;;;17.00;74.30;;;;;;5029699;28;20032;-69
2023/07/22 01:39:18;;;;;;;9.85;6.55;;;17.00;74.30;;;;;;5029997;28;20424;-69
2023/07/22 01:41:43;;;;;;;9.15;6.28;;;17.00;74.40;;;;;;5030212;28;20493;-69
2023/07/22 01:44:09;;;;;;;8.15;5.70;;;17.00;74.40;;;;;;5028194;28;20040;-69
2023/07/22 01:46:36;;;;;;;8.13;6.15;;;17.00;74.30;;;;;;5029918;28;20033;-69
2023/07/22 01:49:03;;;;;;;8.77;6.50;;;17.00;74.40;;;;;;5030116;28;20625;-69
2023/07/22 01:51:29;;;;;;;9.27;7.03;;;16.90;74.60;;;;;;5029716;28;20076;-69
2023/07/22 01:53:56;;;;;;;11.05;7.82;;;16.90;74.90;;;;;;5029463;28;20492;-68
2023/07/22 01:56:22;;;;;;;8.55;6.35;;;16.80;75.30;;;;;;5029709;28;20025;-68
2023/07/22 01:58:48;;;;;;;8.02;6.40;;;16.70;75.70;;;;;;5029776;28;20387;-69
2023/07/22 02:01:16;;;;;;;10.15;6.75;;;16.70;75.80;;;;;;5029595;28;20106;-69
2023/07/22 02:03:42;;;;;;;8.20;5.80;;;16.70;76.70;;;;;;5030045;28;20056;-69
2023/07/22 02:06:08;;;;;;;8.05;5.93;;;16.70;76.00;;;;;;5029429;28;20034;-68
2023/07/22 02:08:33;;;;;;;8.20;6.05;;;16.70;76.10;;;;;;5030039;28;20086;-69
2023/07/22 02:11:04;;;;;;;9.52;6.47;;;16.70;76.10;;;;;;5029786;28;20021;-69
2023/07/22 02:13:31;;;;;;;9.27;7.07;;;16.70;76.20;;;;;;5029792;28;20021;-69
2023/07/22 02:15:57;;;;;;;10.80;7.18;;;16.60;76.50;;;;;;5029702;28;20504;-69
2023/07/22 02:18:22;;;;;;;9.80;6.50;;;16.60;76.80;;;;;;5029699;28;20035;-69
2023/07/22 02:20:48;;;;;;;10.85;7.80;;;16.60;77.00;;;;;;5029677;28;20021;-69
2023/07/22 02:23:14;;;;;;;10.48;7.30;;;16.50;77.40;;;;;;5029357;28;20059;-69
2023/07/22 02:25:39;;;;;;;9.38;6.72;;;16.50;77.50;;;;;;5029523;28;20036;-69
2023/07/22 02:28:06;;;;;;;10.30;7.20;;;16.50;77.80;;;;;;5029438;28;20032;-69
2023/07/22 02:30:34;;;;;;;12.68;8.18;;;16.50;77.90;;;;;;5028475;28;20034;-68
2023/07/22 02:33:02;;;;;;;11.60;8.05;;;16.40;78.00;;;;;;5028884;28;20053;-68
2023/07/22 02:35:28;;;;;;;11.02;7.97;;;16.40;78.00;;;;;;5030323;28;20357;-68
2023/07/22 02:37:53;;;;;;;10.75;7.90;;;16.40;78.20;;;;;;5029830;28;20032;-68
2023/07/22 02:40:19;;;;;;;16.35;10.48;;;16.40;78.20;;;;;;5029377;28;20490;-69
2023/07/22 02:42:44;;;;;;;14.48;9.73;;;16.40;78.20;;;;;;5029949;28;20030;-68
2023/07/22 02:45:10;;;;;;;13.27;9.18;;;16.40;78.30;;;;;;5029236;28;20029;-69
2023/07/22 02:47:36;;;;;;;12.80;8.95;;;16.40;78.40;;;;;;5029562;28;20026;-68
2023/07/22 02:50:03;;;;;;;11.55;8.07;;;16.40;78.40;;;;;;5032817;28;20093;-68
2023/07/22 02:52:29;;;;;;;13.20;9.10;;;16.40;78.30;;;;;;5033173;28;20022;-68
2023/07/22 02:55:11;;;;;;;11.43;8.60;;;16.40;78.30;;;;;;5032831;28;20025;-68
2023/07/22 02:57:38;;;;;;;8.65;6.78;;;16.40;78.40;;;;;;5033005;28;20021;-69
2023/07/22 03:00:13;;;;;;;10.65;7.80;;;16.40;78.30;;;;;;5031989;28;20403;-69
2023/07/22 03:02:41;;;;;;;14.75;9.32;;;16.40;78.20;;;;;;5031647;28;20105;-69
2023/07/22 03:05:08;;;;;;;13.32;9.48;;;16.40;78.30;;;;;;5032359;28;20079;-68
2023/07/22 03:07:37;;;;;;;12.95;8.88;;;16.30;78.70;;;;;;5032340;28;20495;-69
2023/07/22 03:10:07;;;;;;;12.63;8.55;;;16.30;78.80;;;;;;5032830;28;20048;-69
2023/07/22 03:12:33;;;;;;;11.88;8.55;;;16.30;78.80;;;;;;5032332;28;20053;-68
2023/07/22 03:14:59;;;;;;;13.43;9.18;;;16.30;78.70;;;;;;5032379;28;20026;-68
2023/07/22 03:17:25;;;;;;;13.95;9.00;;;16.20;78.70;;;;;;5032312;28;20034;-69
2023/07/22 03:19:50;;;;;;;12.85;8.55;;;16.20;78.90;;;;;;5031024;28;20413;-69
2023/07/22 03:22:17;;;;;;;12.25;8.35;;;16.20;79.10;;;;;;5032046;28;20032;-68
2023/07/22 03:24:44;;;;;;;14.52;8.48;;;16.20;79.00;;;;;;5032438;28;20029;-69
2023/07/22 03:27:10;;;;;;;12.20;9.27;;;16.20;79.10;;;;;;5032078;28;20021;-68
2023/07/22 03:29:36;;;;;;;12.48;9.27;;;16.20;79.30;;;;;;5030719;28;20026;-69
2023/07/22 03:32:01;;;;;;;15.63;11.60;;;16.10;79.50;;;;;;5032190;28;20033;-68
2023/07/22 03:34:28;;;;;;;14.32;10.27;;;16.10;79.80;;;;;;5031685;28;20464;-69
2023/07/22 03:36:53;;;;;;;15.63;10.75;;;16.10;80.10;;;;;;5030629;28;20111;-68
2023/07/22 03:39:19;;;;;;;14.02;9.75;;;16.00;80.90;;;;;;5032106;28;20061;-69
2023/07/22 03:41:45;;;;;;;15.38;10.98;;;16.00;80.60;;;;;;5032039;28;20033;-69
2023/07/22 03:44:11;;;;;;;16.95;11.15;;;15.90;80.80;;;;;;5031679;28;20030;-68
2023/07/22 03:46:37;;;;;;;15.93;10.27;;;15.90;81.20;;;;;;5031859;28;20029;-69
2023/07/22 03:49:03;;;;;;;16.38;11.05;;;15.80;81.50;;;;;;5031553;28;20475;-68
2023/07/22 03:51:28;;;;;;;16.67;11.32;;;15.80;81.70;;;;;;5031791;28;20029;-69
2023/07/22 03:53:54;;;;;;;15.40;10.73;;;15.90;81.90;;;;;;5031597;28;20653;-68
2023/07/22 03:56:20;;;;;;;15.90;11.15;;;15.80;82.10;;;;;;5031823;28;20056;-69
2023/07/22 03:58:45;;;;;;;18.77;11.85;;;15.80;82.40;;;;;;5031702;28;20672;-68
2023/07/22 04:01:12;;;;;;;14.80;10.48;;;15.80;82.70;;;;;;5031861;28;20033;-69
2023/07/22 04:03:37;;;;;;;16.10;10.20;;;15.80;82.80;;;;;;5031660;28;20021;-69
2023/07/22 04:06:03;;;;;;;17.65;11.20;;;15.80;82.90;;;;;;5031481;28;20534;-68
2023/07/22 04:08:29;;;;;;;17.40;12.07;;;15.80;83.10;;;;;;5031862;28;20022;-68
2023/07/22 04:10:55;;;;;;;15.88;11.77;;;15.70;83.50;;;;;;5031410;28;20030;-69
2023/07/22 04:13:22;;;;;;;14.38;10.43;;;15.70;84.10;;;;;;5031563;28;20024;-69
2023/07/22 04:15:48;;;;;;;14.77;10.27;;;15.70;84.20;;;;;;5031112;28;20072;-69
2023/07/22 04:18:15;;;;;;;14.57;10.20;;;15.70;84.20;;;;;;5031638;28;20083;-68
2023/07/22 04:20:41;;;;;;;15.95;11.07;;;15.70;84.20;;;;;;5030997;28;20026;-69
2023/07/22 04:23:06;;;;;;;15.13;10.20;;;15.70;84.20;;;;;;5030959;28;20034;-69
2023/07/22 04:25:32;;;;;;;15.13;10.43;;;15.70;84.70;;;;;;5031255;28;20040;-69
2023/07/22 04:27:58;;;;;;;16.20;11.70;;;15.80;84.10;;;;;;5030908;28;20025;-69
2023/07/22 04:30:24;;;;;;;15.80;11.23;;;15.80;84.40;;;;;;5030896;28;20029;-68
2023/07/22 04:32:50;;;;;;;20.13;12.80;;;15.70;84.40;;;;;;5030992;28;20025;-69
2023/07/22 04:35:19;;;;;;;17.38;12.35;;;15.70;84.60;;;;;;5029494;28;20025;-68
2023/07/22 04:37:44;;;;;;;19.40;12.80;;;15.70;85.00;;;;;;5030912;28;20038;-68
2023/07/22 04:40:14;;;;;;;19.00;11.88;;;15.70;85.40;;;;;;5030832;28;20025;-68
2023/07/22 04:42:41;;;;;;;17.40;12.80;;;15.70;85.60;;;;;;5030812;28;20029;-69
2023/07/22 04:45:09;;;;;;;20.55;12.85;;;15.70;85.60;;;;;;5030780;28;20021;-69
2023/07/22 04:47:35;;;;;;;17.88;11.93;;;15.80;85.70;;;;;;5030850;28;20025;-69
2023/07/22 04:50:01;;;;;;;20.92;13.40;;;15.80;85.80;;;;;;5030670;28;20030;-68
2023/07/22 04:52:27;;;;;;;17.63;11.18;;;15.80;86.00;;;;;;5029578;28;20130;-69
2023/07/22 04:54:53;;;;;;;19.77;12.40;;;15.80;86.00;;;;;;5030633;28;20028;-69
2023/07/22 04:57:20;;;;;;;18.00;11.05;;;15.80;86.10;;;;;;5031286;28;20030;-68
2023/07/22 04:59:46;;;;;;;19.70;13.35;;;15.90;85.90;;;;;;5030709;28;20500;-68
2023/07/22 05:02:12;;;;;;;20.05;11.20;;;15.90;85.80;;;;;;5030560;28;20033;-68
2023/07/22 05:04:37;;;;;;;19.30;13.02;;;16.00;85.80;;;;;;5030542;28;20480;-68
2023/07/22 05:07:03;;;;;;;19.38;13.07;;;16.00;86.50;;;;;;5031109;28;20030;-69
2023/07/22 05:09:29;;;;;;;20.77;14.82;;;16.00;86.00;;;;;;5030641;28;20017;-68
2023/07/22 05:11:55;;;;;;;20.52;12.73;;;16.00;86.00;;;;;;5028814;28;20048;-69
2023/07/22 05:14:20;;;;;;;16.70;11.20;;;16.00;86.10;;;;;;5030398;28;20079;-68
2023/07/22 05:16:46;;;;;;;20.45;12.63;;;16.10;85.90;;;;;;5029939;28;20040;-69
2023/07/22 05:19:12;;;;;;;19.55;12.98;;;16.30;85.80;;;;;;5030215;28;20026;-69
2023/07/22 05:21:37;;;;;;;22.08;14.38;;;16.60;85.30;;;;;;5030157;28;20397;-68
2023/07/22 05:24:03;;;;;;;18.95;12.15;;;16.80;84.30;;;;;;5030195;28;20080;-68
2023/07/22 05:26:29;;;;;;;17.13;11.55;;;16.80;83.70;;;;;;5030029;28;20076;-69
2023/07/22 05:28:54;;;;;;;17.50;11.52;;;16.80;83.30;;;;;;5030223;28;20025;-68
2023/07/22 05:31:20;;;;;;;18.55;12.20;;;16.80;83.20;;;;;;5029990;28;20030;-68
2023/07/22 05:33:45;;;;;;;17.50;11.73;;;16.70;83.40;;;;;;5030246;28;20030;-67
2023/07/22 05:36:11;;;;;;;17.10;11.65;;;16.70;83.60;;;;;;5030599;28;20029;-68
2023/07/22 05:38:36;;;;;;;22.75;13.32;;;16.70;83.70;;;;;;5029880;28;20116;-68
2023/07/22 05:41:02;;;;;;;19.52;13.10;;;17.00;84.30;;;;;;5030101;28;20045;-68
2023/07/22 05:43:27;;;;;;;18.00;12.25;;;17.50;82.70;;;;;;5028492;28;20022;-68
2023/07/22 05:45:53;;;;;;;17.00;11.77;;;18.00;81.00;;;;;;5029726;28;20026;-68
2023/07/22 05:48:19;;;;;;;20.83;13.40;;;18.30;79.60;;;;;;5029585;28;20152;-68
2023/07/22 05:50:44;;;;;;;17.02;12.07;;;18.70;78.20;;;;;;5029789;28;20484;-68
2023/07/22 05:53:10;;;;;;;18.08;11.98;;;19.10;76.60;;;;;;5029675;28;20047;-68
2023/07/22 05:55:36;;;;;;;16.85;12.35;;;19.00;76.10;;;;;;5029669;28;20084;-68
2023/07/22 05:58:05;;;;;;;16.20;11.68;;;18.70;76.40;;;;;;5029628;28;20118;-68
2023/07/22 06:00:32;;;;;;;17.77;11.23;;;18.40;77.20;;;;;;5029708;28;20025;-68
2023/07/22 06:02:58;;;;;;;18.13;11.98;;;18.30;77.80;;;;;;5029994;28;20025;-68
2023/07/22 06:05:23;;;;;;;18.25;12.55;;;18.30;77.90;;;;;;5029412;28;20029;-68
2023/07/22 06:07:49;;;;;;;19.13;12.68;;;18.20;78.10;;;;;;5029636;28;20024;-68
2023/07/22 06:10:15;;;;;;;18.67;13.40;;;18.70;77.70;;;;;;5029375;28;20112;-68
2023/07/22 06:12:41;;;;;;;16.38;11.35;;;19.50;75.50;;;;;;5029543;28;20091;-68
2023/07/22 06:15:07;;;;;;;15.02;11.25;;;19.90;73.60;;;;;;5029306;28;20488;-68
2023/07/22 06:17:33;;;;;;;21.52;14.98;;;19.70;73.40;;;;;;5029868;28;20026;-68
2023/07/22 06:19:58;;;;;;;21.58;13.77;;;19.20;73.70;;;;;;5029673;28;20033;-68
2023/07/22 06:22:24;;;;;;;20.05;13.48;;;18.80;74.90;;;;;;5029460;28;20036;-68
2023/07/22 06:24:50;;;;;;;19.55;13.82;;;18.60;75.90;;;;;;5033521;28;20392;-68
2023/07/22 06:27:15;;;;;;;21.27;13.48;;;18.50;76.50;;;;;;5033226;28;20065;-68
2023/07/22 06:29:41;;;;;;;18.30;12.25;;;18.40;77.10;;;;;;5033201;28;20068;-68
2023/07/22 06:32:07;;;;;;;19.05;13.25;;;18.30;77.60;;;;;;5033052;28;20025;-68
2023/07/22 06:34:32;;;;;;;18.88;12.57;;;18.40;77.80;;;;;;5031864;28;20052;-68
2023/07/22 06:36:58;;;;;;;18.23;12.75;;;18.20;78.00;;;;;;5033593;28;20427;-68
2023/07/22 06:39:23;;;;;;;18.98;12.35;;;18.20;78.20;;;;;;5032979;28;20253;-68
2023/07/22 06:41:49;;;;;;;16.50;12.00;;;18.20;78.40;;;;;;5033028;28;20536;-68
2023/07/22 06:44:14;;;;;;;18.05;12.48;;;18.30;78.40;;;;;;5032924;28;20105;-68
2023/07/22 06:46:40;;;;;;;17.15;12.38;;;18.30;78.20;;;;;;5032746;28;20029;-68
2023/07/22 06:49:07;;;;;;;18.83;12.45;;;18.50;78.20;;;;;;5032878;28;20021;-68
2023/07/22 06:51:32;;;;;;;16.83;11.20;;;18.60;77.70;;;;;;5033371;28;20053;-68
2023/07/22 06:53:58;;;;;;;18.70;12.35;;;18.80;77.20;;;;;;5033239;28;20480;-68
2023/07/22 06:56:23;;;;;;;15.18;11.15;;;18.80;76.90;;;;;;5033282;28;20231;-68
2023/07/22 06:58:51;;;;;;;18.63;12.65;;;19.00;76.80;;;;;;5031888;28;20089;-68
2023/07/22 07:01:16;;;;;;;21.20;13.77;;;19.10;76.20;;;;;;5033369;28;20029;-69
2023/07/22 07:03:42;;;;;;;16.17;10.82;;;19.00;75.90;;;;;;5032802;28;20037;-68
2023/07/22 07:06:07;;;;;;;16.75;11.02;;;19.10;76.00;;;;;;5032527;28;20025;-68
2023/07/22 07:08:33;;;;;;;13.88;9.95;;;19.30;75.50;;;;;;5032583;28;20188;-68
2023/07/22 07:11:00;;;;;;;15.32;10.45;;;19.50;75.10;;;;;;5032876;28;20013;-68
2023/07/22 07:13:26;;;;;;;13.43;9.48;;;19.80;74.70;;;;;;5032703;28;20357;-68
2023/07/22 07:15:52;;;;;;;19.23;12.73;;;20.00;74.20;;;;;;5032602;28;20064;-68
2023/07/22 07:18:17;;;;;;;17.42;12.32;;;20.10;73.20;;;;;;5033052;28;20075;-68
2023/07/22 07:20:44;;;;;;;15.43;11.07;;;19.90;73.00;;;;;;5041806;28;20467;-68
2023/07/22 07:23:09;;;;;;;14.55;9.68;;;20.10;73.30;;;;;;5042931;28;20381;-68
2023/07/22 07:25:35;;;;;;;14.45;10.20;;;20.20;72.90;;;;;;5048126;28;20029;-68
2023/07/22 07:28:00;;;;;;;16.83;10.27;;;20.30;72.60;;;;;;5053994;28;20028;-68
2023/07/22 07:30:26;;;;;;;12.82;8.90;;;20.50;72.20;;;;;;5039683;28;20061;-68
2023/07/22 07:32:52;;;;;;;13.13;9.52;;;20.60;71.90;;;;;;5051646;28;20086;-68
2023/07/22 07:35:17;;;;;;;12.40;9.10;;;20.70;71.70;;;;;;5052528;28;20383;-68
2023/07/22 07:37:43;;;;;;;14.52;9.88;;;20.80;71.40;;;;;;5054602;28;20027;-68
2023/07/22 07:40:09;;;;;;;14.60;9.57;;;21.00;71.10;;;;;;5041722;28;20470;-68
2023/07/22 07:42:34;;;;;;;18.20;12.57;;;21.20;70.70;;;;;;5042386;28;20052;-68
2023/07/22 07:45:00;;;;;;;18.77;12.80;;;21.40;69.70;;;;;;5040497;28;20017;-67
2023/07/22 07:47:25;;;;;;;15.40;9.63;;;21.30;68.90;;;;;;5041609;28;20397;-68
2023/07/22 07:49:51;;;;;;;13.13;9.60;;;21.20;69.20;;;;;;5041938;28;20013;-68
2023/07/22 07:52:17;;;;;;;12.07;8.10;;;21.20;69.10;;;;;;5040111;28;20029;-68
2023/07/22 07:54:42;;;;;;;16.20;11.13;;;21.30;69.20;;;;;;5041907;28;20095;-68
2023/07/22 07:57:08;;;;;;;12.75;9.23;;;21.40;68.60;;;;;;5040940;28;20044;-68
2023/07/22 07:59:33;;;;;;;12.95;9.15;;;21.50;68.60;;;;;;5030771;28;20028;-69
2023/07/22 08:01:59;;;;;;;13.48;9.30;;;21.50;68.20;;;;;;5042028;28;20434;-67
2023/07/22 08:04:24;;;;;;;14.55;7.70;;;21.30;67.90;;;;;;5040398;28;20030;-68
2023/07/22 08:06:50;;;;;;;13.80;8.95;;;21.40;68.20;;;;;;5040587;28;20025;-68
2023/07/22 08:09:19;;;;;;;14.90;9.57;;;21.40;68.20;;;;;;5041944;28;20025;-68
2023/07/22 08:11:45;;;;;;;13.25;9.93;;;21.30;68.00;;;;;;5040340;28;20014;-67
2023/07/22 08:14:11;;;;;;;13.10;9.13;;;21.40;68.00;;;;;;5040294;28;20064;-68
2023/07/22 08:16:36;;;;;;;12.45;8.30;;;21.20;68.00;;;;;;5041583;28;20028;-68
2023/07/22 08:19:02;;;;;;;16.45;9.93;;;21.20;68.10;;;;;;5039899;28;20701;-68
2023/07/22 08:21:28;;;;;;;11.27;7.82;;;21.20;67.60;;;;;;5042304;28;20017;-69
2023/07/22 08:23:54;;;;;;;10.45;7.72;;;21.20;67.50;;;;;;5032614;28;20079;-68
2023/07/22 08:26:21;;;;;;;13.07;7.90;;;21.20;67.20;;;;;;5047742;28;20033;-68
2023/07/22 08:28:47;;;;;;;9.32;6.55;;;21.20;67.10;;;;;;5052553;28;20479;-68
2023/07/22 08:31:13;;;;;;;9.30;7.13;;;21.30;67.30;;;;;;5030042;28;20397;-68
2023/07/22 08:33:39;;;;;;;12.15;7.18;;;21.50;67.10;;;;;;5041650;28;20371;-68
2023/07/22 08:36:05;;;;;;;10.25;6.30;;;21.50;66.90;;;;;;5040226;28;20123;-68
2023/07/22 08:38:31;;;;;;;10.07;6.22;;;21.60;67.00;;;;;;5055264;28;20391;-69
2023/07/22 08:40:57;;;;;;;11.20;7.80;;;21.70;66.60;;;;;;5059803;28;20481;-69
2023/07/22 08:43:23;;;;;;;10.32;6.97;;;21.80;66.30;;;;;;5051217;28;20113;-68
2023/07/22 08:45:50;;;;;;;12.18;7.47;;;21.80;65.80;;;;;;5063210;28;20031;-68
2023/07/22 08:48:21;;;;;;;9.63;7.45;;;21.70;65.60;;;;;;5068998;28;20414;-68
2023/07/22 08:51:04;;;;;;;10.43;7.35;;;21.60;65.30;;;;;;5069953;28;20021;-68
2023/07/22 08:53:30;;;;;;;10.82;7.43;;;21.60;65.50;;;;;;5069586;28;20024;-68
2023/07/22 08:55:56;;;;;;;11.80;8.48;;;21.60;65.30;;;;;;5069538;28;20021;-68
2023/07/22 08:58:23;;;;;;;12.70;9.02;;;21.50;65.20;;;;;;5065220;28;20039;-69
2023/07/22 09:00:49;;;;;;;10.40;7.40;;;21.60;65.00;;;;;;5050350;28;20062;-69
2023/07/22 09:03:16;;;;;;;11.25;8.15;;;21.50;65.10;;;;;;5068982;28;20032;-69
2023/07/22 09:05:43;;;;;;;10.40;7.18;;;21.50;65.00;;;;;;5070019;28;20402;-69
2023/07/22 09:08:09;;;;;;;10.48;7.53;;;21.50;65.10;;;;;;5070311;28;20093;-69
2023/07/22 09:10:35;;;;;;;13.82;8.02;;;21.50;65.20;;;;;;5070363;28;20518;-69
2023/07/22 09:13:02;;;;;;;13.68;9.60;;;21.50;65.10;;;;;;5070642;28;20020;-69
2023/07/22 09:15:28;;;;;;;11.82;8.32;;;21.50;65.10;;;;;;5070049;28;20343;-69
2023/07/22 09:17:53;;;;;;;10.13;6.60;;;21.50;65.20;;;;;;5070382;28;20032;-68
2023/07/22 09:20:20;;;;;;;11.70;7.90;;;21.60;65.10;;;;;;5070359;28;20025;-69
2023/07/22 09:22:51;;;;;;;11.52;7.65;;;21.70;64.70;;;;;;5070517;28;20452;-68
2023/07/22 09:25:24;;;;;;;9.63;6.80;;;21.90;64.30;;;;;;5069966;28;20056;-69
2023/07/22 09:27:55;;;;;;;10.50;6.90;;;21.90;64.60;;;;;;5070163;28;20219;-68
2023/07/22 09:30:32;;;;;;;12.50;8.15;;;21.90;63.60;;;;;;5070012;28;20040;-68
2023/07/22 09:33:00;;;;;;;9.88;6.50;;;21.80;63.30;;;;;;5059282;28;20025;-68
2023/07/22 09:35:28;;;;;;;11.35;8.02;;;21.60;63.30;;;;;;5053400;28;20501;-69
2023/07/22 09:37:54;;;;;;;9.63;6.32;;;21.60;63.40;;;;;;5069664;28;20028;-69
2023/07/22 09:40:21;;;;;;;7.53;5.13;;;21.60;63.50;;;;;;5070457;28;20021;-69
2023/07/22 09:42:49;;;;;;;9.55;5.65;;;21.70;63.60;;;;;;5069747;28;20390;-68
2023/07/22 09:45:16;;;;;;;11.40;6.63;;;21.80;63.20;;;;;;5069886;28;20403;-69
2023/07/22 09:47:43;;;;;;;6.80;4.78;;;21.80;62.30;;;;;;5062059;28;20393;-68
2023/07/22 09:50:29;;;;;;;7.03;4.57;;;21.80;62.60;;;;;;5056408;28;20028;-68
2023/07/22 09:52:57;;;;;;;6.30;4.20;;;21.90;62.40;;;;;;5050706;28;20584;-68
2023/07/22 09:55:28;;;;;;;7.50;4.53;;;22.10;62.10;;;;;;5054184;28;20025;-69
2023/07/22 09:57:59;;;;;;;8.55;5.07;;;22.30;61.60;;;;;;5054949;28;20073;-68
2023/07/22 10:00:28;;;;;;;9.37;5.67;;;22.40;60.70;;;;;;5053080;28;20036;-69
2023/07/22 10:02:56;;;;;;;9.40;5.70;;;22.50;60.50;;;;;;5058316;28;20137;-69
2023/07/22 10:05:24;;;;;;;7.95;5.32;;;22.40;59.70;;;;;;5052527;28;20020;-68
2023/07/22 10:07:51;;;;;;;8.02;5.00;;;22.30;60.10;;;;;;5047992;28;20111;-68
2023/07/22 10:10:20;;;;;;;8.25;4.30;;;22.30;59.80;;;;;;5051844;28;20017;-68
2023/07/22 10:12:46;;;;;;;5.50;3.58;;;22.30;59.80;;;;;;5051731;28;20021;-69
2023/07/22 10:15:14;;;;;;;5.65;4.07;;;22.40;60.10;;;;;;5051873;28;20054;-69
2023/07/22 10:17:41;;;;;;;7.10;4.28;;;22.50;60.10;;;;;;5054513;28;20410;-68
2023/07/22 10:20:15;;;;;;;5.85;4.28;;;22.60;59.90;;;;;;5051093;28;20104;-68
2023/07/22 10:22:43;;;;;;;8.15;4.78;;;22.60;59.60;;;;;;5051742;28;20021;-68
2023/07/22 10:25:11;;;;;;;6.80;4.15;;;22.60;59.10;;;;;;5055051;28;20032;-69
2023/07/22 10:27:39;;;;;;;5.60;4.32;;;22.60;59.20;;;;;;5052748;28;20051;-69
2023/07/22 10:30:05;;;;;;;7.03;4.00;;;22.70;59.10;;;;;;5035506;28;20041;-69
2023/07/22 10:32:33;;;;;;;6.03;4.78;;;22.80;59.30;;;;;;5051978;28;20028;-69
2023/07/22 10:34:59;;;;;;;7.68;5.18;;;22.80;59.10;;;;;;5034962;28;20021;-68
2023/07/22 10:37:33;;;;;;;6.78;4.57;;;22.80;58.50;;;;;;5051286;28;20495;-68
2023/07/22 10:40:19;;;;;;;8.20;5.10;;;22.90;58.80;;;;;;5051489;28;20032;-68
2023/07/22 10:43:20;;;;;;;6.53;4.30;;;22.90;59.00;;;;;;5048621;28;20114;-69
2023/07/22 10:45:53;;;;;;;5.85;4.38;;;22.80;59.00;;;;;;5038990;28;20041;-69
2023/07/22 10:48:21;;;;;;;9.55;4.35;;;22.80;58.90;;;;;;5066406;28;20124;-69
2023/07/22 10:50:52;;;;;;;6.95;4.60;;;22.70;58.40;;;;;;5054042;28;20029;-68
2023/07/22 10:53:27;;;;;;;8.35;5.57;;;22.70;58.40;;;;;;5051312;28;20507;-68
2023/07/22 10:56:05;;;;;;;5.80;4.15;;;22.60;58.00;;;;;;5054365;28;20056;-68
2023/07/22 10:58:56;;;;;;;6.60;4.75;;;22.50;58.70;;;;;;5049750;28;20032;-69
2023/07/22 11:01:34;;;;;;;4.75;3.63;;;22.50;58.30;;;;;;5049903;28;20484;-69
2023/07/22 11:04:10;;;;;;;5.28;3.60;;;22.50;58.60;;;;;;5048178;28;20024;-69
2023/07/22 11:06:55;;;;;;;6.43;3.72;;;22.50;58.70;;;;;;5049774;28;20021;-69
2023/07/22 11:09:27;;;;;;;6.75;3.33;;;22.50;58.20;;;;;;5049248;28;20025;-69
2023/07/22 11:11:54;;;;;;;6.07;3.70;;;22.40;58.30;;;;;;5056773;28;20032;-69
2023/07/22 11:14:24;;;;;;;5.95;3.20;;;22.30;58.40;;;;;;5050611;28;20025;-69
2023/07/22 11:16:50;;;;;;;6.10;3.65;;;22.30;58.60;;;;;;5052994;28;20033;-68
2023/07/22 11:19:17;;;;;;;5.38;3.33;;;22.20;58.70;;;;;;5050854;28;20051;-69
2023/07/22 11:21:48;;;;;;;4.70;2.78;;;22.10;58.50;;;;;;5052901;28;20424;-69
2023/07/22 11:24:14;;;;;;;5.63;3.45;;;22.00;58.70;;;;;;5053476;28;20033;-69
2023/07/22 11:26:40;;;;;;;3.90;3.03;;;21.90;58.60;;;;;;5049287;28;20037;-69
2023/07/22 11:29:07;;;;;;;6.43;3.40;;;21.90;58.80;;;;;;5050372;28;20032;-69
2023/07/22 11:31:45;;;;;;;5.97;3.50;;;21.90;58.90;;;;;;5048052;28;20067;-69
2023/07/22 11:34:11;;;;;;;3.75;2.55;;;21.80;59.00;;;;;;5051630;28;20607;-69
2023/07/22 11:36:36;;;;;;;4.03;2.80;;;21.70;59.30;;;;;;5052142;28;20096;-69
2023/07/22 11:39:04;;;;;;;5.05;2.70;;;21.70;59.50;;;;;;5051645;28;20071;-69
2023/07/22 11:41:31;;;;;;;3.58;2.72;;;21.70;59.80;;;;;;5050597;28;20033;-69
2023/07/22 11:43:58;;;;;;;3.50;2.80;;;21.70;59.90;;;;;;5051926;28;20055;-69
2023/07/22 11:46:25;;;;;;;4.72;2.90;;;21.70;59.90;;;;;;5052042;28;20278;-68
2023/07/22 11:48:52;;;;;;;3.63;2.40;;;21.70;60.00;;;;;;5046350;28;20106;-69
2023/07/22 11:51:22;;;;;;;5.10;2.88;;;21.70;60.00;;;;;;5050259;28;21272;-69
2023/07/22 11:53:53;;;;;;;3.90;2.95;;;21.70;60.20;;;;;;5050543;28;20077;-69
2023/07/22 11:56:23;;;;;;;4.03;2.70;;;21.80;60.20;;;;;;5050176;28;20028;-69
2023/07/22 11:58:50;;;;;;;4.70;3.10;;;21.80;60.30;;;;;;5048277;28;20025;-68
2023/07/22 12:01:16;;;;;;;4.47;2.72;;;21.80;60.10;;;;;;5050322;28;20131;-69
2023/07/22 12:03:41;;;;;;;4.95;3.05;;;21.80;60.00;;;;;;5051222;28;20096;-69
2023/07/22 12:06:07;;;;;;;5.97;3.05;;;21.70;60.00;;;;;;5050737;28;20014;-69
2023/07/22 12:08:34;;;;;;;3.83;2.53;;;21.60;60.00;;;;;;5050228;28;20029;-69
2023/07/22 12:11:00;;;;;;;4.93;2.78;;;21.70;60.00;;;;;;5050294;28;20017;-69
2023/07/22 12:13:25;;;;;;;3.85;2.30;;;21.70;60.50;;;;;;5049961;28;20480;-69
2023/07/22 12:16:05;;;;;;;4.47;2.60;;;21.80;59.90;;;;;;5050829;28;20088;-67
2023/07/22 12:18:46;;;;;;;3.03;2.17;;;21.80;59.40;;;;;;5048644;28;20024;-68
2023/07/22 12:21:13;;;;;;;5.68;2.67;;;22.00;59.40;;;;;;5048356;28;20383;-68
2023/07/22 12:23:40;;;;;;;3.00;1.90;;;22.20;58.80;;;;;;5050734;28;20027;-68
2023/07/22 12:26:06;;;;;;;4.05;2.40;;;22.50;58.60;;;;;;5048176;28;20059;-68
2023/07/22 12:28:32;;;;;;;4.38;2.72;;;22.70;58.20;;;;;;5046584;28;20133;-68
2023/07/22 12:30:58;;;;;;;5.53;2.72;;;22.80;58.40;;;;;;5029753;28;20634;-68
2023/07/22 12:33:24;;;;;;;3.55;2.10;;;22.80;57.70;;;;;;5047508;28;20056;-68
2023/07/22 12:35:50;;;;;;;2.97;2.17;;;22.70;57.80;;;;;;5050063;28;20396;-68
2023/07/22 12:38:16;;;;;;;3.88;2.10;;;22.60;57.90;;;;;;5049401;28;20021;-68